Time,TemperatureF,DewpointF,PressureIn,WindDirection,WindDirectionDegrees,WindSpeedMPH,WindSpeedGustMPH,Humidity,HourlyPrecipIn,Conditions,Clouds,dailyrainin,SolarRadiationWatts/m^2,SoftwareType,DateUTC
2013-05-08 00:02:00,55.0,53.0,-100.00,SSW,194,2.0,6.0,93,0.00,,,0.15,0.000000,,2013-05-08 04:02:00,
2013-05-08 00:33:00,55.0,53.0,-100.00,SSW,194,2.0,6.0,93,0.00,,,0.15,0.000000,,2013-05-08 04:33:00,
2013-05-08 00:43:00,55.0,53.0,-100.00,SSW,194,2.0,6.0,93,0.00,,,0.15,0.000000,,2013-05-08 04:43:00,
2013-05-08 00:53:00,55.0,53.0,-100.00,SSW,194,2.0,6.0,93,0.00,,,0.15,0.000000,,2013-05-08 04:53:00,
2013-05-08 01:02:00,54.0,53.0,-100.00,WNW,290,2.0,4.0,96,0.00,,,0.14,0.000000,,2013-05-08 05:02:00,
2013-05-08 01:32:00,54.0,53.0,-100.00,WNW,290,2.0,4.0,96,0.00,,,0.14,0.000000,,2013-05-08 05:32:00,
2013-05-08 01:42:00,54.0,53.0,-100.00,WNW,290,2.0,4.0,96,0.00,,,0.14,0.000000,,2013-05-08 05:42:00,
2013-05-08 01:52:00,54.0,53.0,-100.00,WNW,290,2.0,4.0,96,0.00,,,0.14,0.000000,,2013-05-08 05:52:00,
2013-05-08 02:02:00,53.0,52.0,-100.00,SSW,200,1.0,4.0,96,0.00,,,0.13,0.000000,,2013-05-08 06:02:00,
2013-05-08 02:22:00,53.0,52.0,-100.00,SSW,200,1.0,4.0,96,0.00,,,0.13,0.000000,,2013-05-08 06:22:00,
2013-05-08 02:32:00,53.0,52.0,-100.00,SSW,200,1.0,4.0,96,0.00,,,0.13,0.000000,,2013-05-08 06:32:00,
2013-05-08 02:42:00,53.0,52.0,-100.00,SSW,200,1.0,4.0,96,0.00,,,0.13,0.000000,,2013-05-08 06:42:00,
2013-05-08 02:52:00,53.0,52.0,-100.00,SSW,200,1.0,4.0,96,0.00,,,0.13,0.000000,,2013-05-08 06:52:00,
2013-05-08 03:02:00,53.0,52.0,-100.00,South,184,2.0,5.0,97,0.00,,,0.10,0.000000,,2013-05-08 07:02:00,
2013-05-08 03:22:00,53.0,52.0,-100.00,South,184,2.0,5.0,97,0.00,,,0.10,0.000000,,2013-05-08 07:22:00,
2013-05-08 03:32:00,53.0,52.0,-100.00,South,184,2.0,5.0,97,0.00,,,0.10,0.000000,,2013-05-08 07:32:00,
2013-05-08 03:42:00,53.0,52.0,-100.00,South,184,2.0,5.0,97,0.00,,,0.10,0.000000,,2013-05-08 07:42:00,
2013-05-08 03:52:00,53.0,52.0,-100.00,South,184,2.0,5.0,97,0.00,,,0.10,0.000000,,2013-05-08 07:52:00,
2013-05-08 04:02:00,53.0,52.0,-100.00,SW,215,2.0,5.0,97,0.00,,,0.06,0.000000,,2013-05-08 08:02:00,
2013-05-08 04:22:00,53.0,52.0,-100.00,SW,215,2.0,5.0,97,0.00,,,0.06,0.000000,,2013-05-08 08:22:00,
2013-05-08 04:32:00,53.0,52.0,-100.00,SW,215,2.0,5.0,97,0.00,,,0.06,0.000000,,2013-05-08 08:32:00,
2013-05-08 04:43:00,53.0,52.0,-100.00,SW,215,2.0,5.0,97,0.00,,,0.06,0.000000,,2013-05-08 08:43:00,
2013-05-08 04:52:00,53.0,52.0,-100.00,SW,215,2.0,5.0,97,0.00,,,0.06,0.000000,,2013-05-08 08:52:00,
2013-05-08 05:02:00,52.0,51.0,-100.00,SSW,209,2.0,7.0,97,0.00,,,0.02,0.000000,,2013-05-08 09:02:00,
2013-05-08 05:22:00,52.0,51.0,-100.00,SSW,209,2.0,7.0,97,0.00,,,0.02,0.000000,,2013-05-08 09:22:00,
2013-05-08 05:32:00,52.0,51.0,-100.00,SSW,209,2.0,7.0,97,0.00,,,0.02,0.000000,,2013-05-08 09:32:00,
2013-05-08 05:42:00,52.0,51.0,-100.00,SSW,209,2.0,7.0,97,0.00,,,0.02,0.000000,,2013-05-08 09:42:00,
2013-05-08 05:53:00,52.0,51.0,-100.00,SSW,209,2.0,7.0,97,0.00,,,0.02,0.000000,,2013-05-08 09:53:00,
2013-05-08 06:02:00,51.0,50.0,-100.00,North,4,1.0,5.0,98,0.00,,,0.02,0.000000,,2013-05-08 10:02:00,
2013-05-08 06:33:00,51.0,50.0,-100.00,North,4,1.0,5.0,98,0.00,,,0.02,0.000000,,2013-05-08 10:33:00,
2013-05-08 06:42:00,51.0,50.0,-100.00,North,4,1.0,5.0,98,0.00,,,0.02,0.000000,,2013-05-08 10:42:00,
2013-05-08 06:53:00,51.0,50.0,-100.00,North,4,1.0,5.0,98,0.00,,,0.02,0.000000,,2013-05-08 10:53:00,
2013-05-08 07:02:00,51.0,51.0,-100.00,SW,232,2.0,6.0,99,0.00,,,0.02,1.000000,,2013-05-08 11:02:00,
2013-05-08 07:33:00,51.0,51.0,-100.00,SW,232,2.0,6.0,99,0.00,,,0.02,1.000000,,2013-05-08 11:33:00,
2013-05-08 07:42:00,51.0,51.0,-100.00,SW,232,2.0,6.0,99,0.00,,,0.02,1.000000,,2013-05-08 11:42:00,
2013-05-08 07:52:00,51.0,51.0,-100.00,SW,232,2.0,6.0,99,0.00,,,0.02,1.000000,,2013-05-08 11:52:00,
2013-05-08 08:22:00,51.0,50.0,-100.00,NW,316,2.0,7.0,98,0.00,,,0.02,15.000000,,2013-05-08 12:22:00,
2013-05-08 08:32:00,51.0,50.0,-100.00,NW,316,2.0,7.0,98,0.00,,,0.02,15.000000,,2013-05-08 12:32:00,
2013-05-08 08:42:00,51.0,50.0,-100.00,NW,316,2.0,7.0,98,0.00,,,0.02,15.000000,,2013-05-08 12:42:00,
2013-05-08 08:52:00,51.0,50.0,-100.00,NW,316,2.0,7.0,98,0.00,,,0.02,15.000000,,2013-05-08 12:52:00,
2013-05-08 09:01:00,51.0,50.0,-100.00,NW,316,2.0,7.0,98,0.00,,,0.02,15.000000,,2013-05-08 13:01:00,
2013-05-08 09:02:00,58.0,54.0,-100.00,North,352,2.0,8.0,88,0.00,,,0.02,135.000000,,2013-05-08 13:02:00,
2013-05-08 09:32:00,58.0,54.0,-100.00,North,352,2.0,8.0,88,0.00,,,0.02,135.000000,,2013-05-08 13:32:00,
2013-05-08 09:42:00,58.0,54.0,-100.00,North,352,2.0,8.0,88,0.00,,,0.02,135.000000,,2013-05-08 13:42:00,
2013-05-08 09:52:00,58.0,54.0,-100.00,North,352,2.0,8.0,88,0.00,,,0.02,135.000000,,2013-05-08 13:52:00,
2013-05-08 10:02:00,65.0,57.0,-100.00,WNW,293,3.0,7.0,75,0.00,,,0.02,498.000000,,2013-05-08 14:02:00,
2013-05-08 10:22:00,65.0,57.0,-100.00,WNW,293,3.0,7.0,75,0.00,,,0.02,498.000000,,2013-05-08 14:22:00,
2013-05-08 10:32:00,65.0,57.0,-100.00,WNW,293,3.0,7.0,75,0.00,,,0.02,498.000000,,2013-05-08 14:32:00,
2013-05-08 10:42:00,65.0,57.0,-100.00,WNW,293,3.0,7.0,75,0.00,,,0.02,498.000000,,2013-05-08 14:42:00,
2013-05-08 10:52:00,65.0,57.0,-100.00,WNW,293,3.0,7.0,75,0.00,,,0.02,498.000000,,2013-05-08 14:52:00,
2013-05-08 11:02:00,70.0,58.0,-100.00,WNW,296,3.0,9.0,66,0.00,,,0.02,679.000000,,2013-05-08 15:02:00,
2013-05-08 11:22:00,70.0,58.0,-100.00,WNW,296,3.0,9.0,66,0.00,,,0.02,679.000000,,2013-05-08 15:22:00,
2013-05-08 11:33:00,70.0,58.0,-100.00,WNW,296,3.0,9.0,66,0.00,,,0.02,679.000000,,2013-05-08 15:33:00,
2013-05-08 11:42:00,70.0,58.0,-100.00,WNW,296,3.0,9.0,66,0.00,,,0.02,679.000000,,2013-05-08 15:42:00,
2013-05-08 11:53:00,70.0,58.0,-100.00,WNW,296,3.0,9.0,66,0.00,,,0.02,679.000000,,2013-05-08 15:53:00,
2013-05-08 12:02:00,71.0,58.0,-100.00,WNW,300,3.0,11.0,64,0.00,,,-99.99,624.000000,,2013-05-08 16:02:00,
2013-05-08 12:23:00,71.0,58.0,-100.00,WNW,300,3.0,11.0,64,0.00,,,-99.99,624.000000,,2013-05-08 16:23:00,
2013-05-08 12:33:00,71.0,58.0,-100.00,WNW,300,3.0,11.0,64,0.00,,,-99.99,624.000000,,2013-05-08 16:33:00,
2013-05-08 12:42:00,71.0,58.0,-100.00,WNW,300,3.0,11.0,64,0.00,,,-99.99,624.000000,,2013-05-08 16:42:00,
2013-05-08 12:52:00,71.0,58.0,-100.00,WNW,300,3.0,11.0,64,0.00,,,-99.99,624.000000,,2013-05-08 16:52:00,
2013-05-08 13:02:00,74.0,55.0,-100.00,WNW,288,4.0,10.0,52,0.00,,,-99.99,904.000000,,2013-05-08 17:02:00,
2013-05-08 13:22:00,74.0,55.0,-100.00,WNW,288,4.0,10.0,52,0.00,,,-99.99,904.000000,,2013-05-08 17:22:00,
2013-05-08 13:32:00,74.0,55.0,-100.00,WNW,288,4.0,10.0,52,0.00,,,-99.99,904.000000,,2013-05-08 17:32:00,
2013-05-08 13:42:00,74.0,55.0,-100.00,WNW,288,4.0,10.0,52,0.00,,,-99.99,904.000000,,2013-05-08 17:42:00,
2013-05-08 13:52:00,74.0,55.0,-100.00,WNW,288,4.0,10.0,52,0.00,,,-99.99,904.000000,,2013-05-08 17:52:00,
2013-05-08 14:32:00,74.0,54.0,-100.00,NW,320,4.0,12.0,49,0.00,,,0.02,831.000000,,2013-05-08 18:32:00,
2013-05-08 14:42:00,74.0,54.0,-100.00,NW,320,4.0,12.0,49,0.00,,,0.02,831.000000,,2013-05-08 18:42:00,
2013-05-08 14:52:00,74.0,54.0,-100.00,NW,320,4.0,12.0,49,0.00,,,0.02,831.000000,,2013-05-08 18:52:00,
2013-05-08 15:01:00,74.0,54.0,-100.00,NW,320,4.0,12.0,49,0.00,,,0.02,831.000000,,2013-05-08 19:01:00,
2013-05-08 15:02:00,72.0,56.0,-100.00,NNW,338,2.0,15.0,57,0.00,,,0.02,619.000000,,2013-05-08 19:02:00,
2013-05-08 15:32:00,72.0,56.0,-100.00,NNW,338,2.0,15.0,57,0.00,,,0.02,619.000000,,2013-05-08 19:32:00,
2013-05-08 15:42:00,72.0,56.0,-100.00,NNW,338,2.0,15.0,57,0.00,,,0.02,619.000000,,2013-05-08 19:42:00,
2013-05-08 15:52:00,72.0,56.0,-100.00,NNW,338,2.0,15.0,57,0.00,,,0.02,619.000000,,2013-05-08 19:52:00,
2013-05-08 16:22:00,76.0,53.0,-100.00,NW,317,4.0,10.0,45,0.00,,,0.02,517.000000,,2013-05-08 20:22:00,
2013-05-08 16:32:00,76.0,53.0,-100.00,NW,317,4.0,10.0,45,0.00,,,0.02,517.000000,,2013-05-08 20:32:00,
2013-05-08 16:42:00,76.0,53.0,-100.00,NW,317,4.0,10.0,45,0.00,,,0.02,517.000000,,2013-05-08 20:42:00,
2013-05-08 16:52:00,76.0,53.0,-100.00,NW,317,4.0,10.0,45,0.00,,,0.02,517.000000,,2013-05-08 20:52:00,
2013-05-08 17:01:00,76.0,53.0,-100.00,NW,317,4.0,10.0,45,0.00,,,0.02,517.000000,,2013-05-08 21:01:00,
2013-05-08 17:02:00,74.0,54.0,-100.00,West,277,4.0,11.0,50,0.00,,,0.02,576.000000,,2013-05-08 21:02:00,
2013-05-08 17:33:00,74.0,54.0,-100.00,West,277,4.0,11.0,50,0.00,,,0.02,576.000000,,2013-05-08 21:33:00,
2013-05-08 17:43:00,74.0,54.0,-100.00,West,277,4.0,11.0,50,0.00,,,0.02,576.000000,,2013-05-08 21:43:00,
2013-05-08 17:53:00,74.0,54.0,-100.00,West,277,4.0,11.0,50,0.00,,,0.02,576.000000,,2013-05-08 21:53:00,
2013-05-08 18:02:00,74.0,57.0,-100.00,NW,325,3.0,9.0,56,0.00,,,0.02,519.000000,,2013-05-08 22:02:00,
2013-05-08 18:33:00,74.0,57.0,-100.00,NW,325,3.0,9.0,56,0.00,,,0.02,519.000000,,2013-05-08 22:33:00,
2013-05-08 18:42:00,74.0,57.0,-100.00,NW,325,3.0,9.0,56,0.00,,,0.02,519.000000,,2013-05-08 22:42:00,
2013-05-08 18:53:00,74.0,57.0,-100.00,NW,325,3.0,9.0,56,0.00,,,0.02,519.000000,,2013-05-08 22:53:00,
2013-05-08 19:02:00,72.0,56.0,-100.00,NW,321,3.0,14.0,58,0.00,,,0.02,254.000000,,2013-05-08 23:02:00,
2013-05-08 19:22:00,72.0,56.0,-100.00,NW,321,3.0,14.0,58,0.00,,,0.02,254.000000,,2013-05-08 23:22:00,
2013-05-08 19:33:00,72.0,56.0,-100.00,NW,321,3.0,14.0,58,0.00,,,0.02,254.000000,,2013-05-08 23:33:00,
2013-05-08 19:42:00,72.0,56.0,-100.00,NW,321,3.0,14.0,58,0.00,,,0.02,254.000000,,2013-05-08 23:42:00,
2013-05-08 19:52:00,72.0,56.0,-100.00,NW,321,3.0,14.0,58,0.00,,,0.02,254.000000,,2013-05-08 23:52:00,
2013-05-08 20:32:00,68.0,56.0,-100.00,NW,313,2.0,10.0,65,0.00,,,0.02,48.000000,,2013-05-09 00:32:00,
2013-05-08 20:42:00,68.0,56.0,-100.00,NW,313,2.0,10.0,65,0.00,,,0.02,48.000000,,2013-05-09 00:42:00,
2013-05-08 20:52:00,68.0,56.0,-100.00,NW,313,2.0,10.0,65,0.00,,,0.02,48.000000,,2013-05-09 00:52:00,
2013-05-08 21:01:00,68.0,56.0,-100.00,NW,313,2.0,10.0,65,0.00,,,0.02,48.000000,,2013-05-09 01:01:00,
2013-05-08 21:02:00,65.0,56.0,-100.00,SW,235,2.0,5.0,72,0.00,,,0.00,3.000000,,2013-05-09 01:02:00,
2013-05-08 21:22:00,65.0,56.0,-100.00,SW,235,2.0,5.0,72,0.00,,,0.00,3.000000,,2013-05-09 01:22:00,
2013-05-08 21:32:00,65.0,56.0,-100.00,SW,235,2.0,5.0,72,0.00,,,0.00,3.000000,,2013-05-09 01:32:00,
2013-05-08 21:42:00,65.0,56.0,-100.00,SW,235,2.0,5.0,72,0.00,,,0.00,3.000000,,2013-05-09 01:42:00,
2013-05-08 21:53:00,65.0,56.0,-100.00,SW,235,2.0,5.0,72,0.00,,,0.00,3.000000,,2013-05-09 01:53:00,
2013-05-08 22:02:00,64.0,56.0,-100.00,WSW,245,2.0,4.0,75,0.00,,,0.00,0.000000,,2013-05-09 02:02:00,
2013-05-08 22:33:00,64.0,56.0,-100.00,WSW,245,2.0,4.0,75,0.00,,,0.00,0.000000,,2013-05-09 02:33:00,
2013-05-08 22:42:00,64.0,56.0,-100.00,WSW,245,2.0,4.0,75,0.00,,,0.00,0.000000,,2013-05-09 02:42:00,
2013-05-08 22:52:00,64.0,56.0,-100.00,WSW,245,2.0,4.0,75,0.00,,,0.00,0.000000,,2013-05-09 02:52:00,
2013-05-08 23:02:00,62.0,56.0,-100.00,WSW,249,2.0,5.0,81,0.00,,,0.00,0.000000,,2013-05-09 03:02:00,
2013-05-08 23:21:00,62.0,56.0,-100.00,WSW,249,2.0,5.0,81,0.00,,,0.00,0.000000,,2013-05-09 03:21:00,
2013-05-08 23:33:00,62.0,56.0,-100.00,WSW,249,2.0,5.0,81,0.00,,,0.00,0.000000,,2013-05-09 03:33:00,
2013-05-08 23:43:00,62.0,56.0,-100.00,WSW,249,2.0,5.0,81,0.00,,,0.00,0.000000,,2013-05-09 03:43:00,
2013-05-08 23:53:00,62.0,56.0,-100.00,WSW,249,2.0,5.0,81,0.00,,,0.00,0.000000,,2013-05-09 03:53:00,